Time;durP1;ratioP1;P1;durP2;ratioP2;P2;SDS_P1;SDS_P2;PMS_P1;PMS_P2;Temp;Humidity;BMP_temperature;BMP_pressure;BME280_temperature;BME280_humidity;BME280_pressure;Samples;Min_cycle;Max_cycle;Signal;HPM_P1;HPM_P2
2021/12/11 00:02:16;;;;;;;61.17;31.35;;;-3.40;99.90;;;;;;5110124;28;20065;-66
2021/12/11 00:04:45;;;;;;;57.60;30.48;;;-3.40;99.90;;;;;;5111830;28;20119;-67
2021/12/11 00:07:15;;;;;;;54.20;28.58;;;-3.40;99.90;;;;;;5110262;28;20047;-66
2021/12/11 00:09:45;;;;;;;54.03;29.48;;;-3.50;99.90;;;;;;5110499;28;20028;-68
2021/12/11 00:12:23;;;;;;;51.22;29.15;;;-3.50;99.90;;;;;;5110173;28;20453;-67
2021/12/11 00:14:54;;;;;;;61.55;31.67;;;-3.50;99.90;;;;;;5110362;28;20455;-67
2021/12/11 00:17:25;;;;;;;55.17;30.98;;;-3.50;99.90;;;;;;5092721;28;20051;-66
2021/12/11 00:19:50;;;;;;;58.25;32.40;;;-3.50;99.90;;;;;;5111230;28;20032;-67
2021/12/11 00:22:22;;;;;;;60.40;32.13;;;-3.50;99.90;;;;;;5110864;28;20502;-67
2021/12/11 00:24:48;;;;;;;63.05;34.38;;;-3.60;99.90;;;;;;5111079;28;20385;-67
2021/12/11 00:27:20;;;;;;;59.13;32.65;;;-3.60;99.90;;;;;;5111342;28;20045;-67
2021/12/11 00:29:46;;;;;;;60.80;33.72;;;-3.60;99.90;;;;;;5109982;28;20077;-67
2021/12/11 00:32:21;;;;;;;73.80;36.95;;;-3.60;99.90;;;;;;5109425;28;20435;-67
2021/12/11 00:34:47;;;;;;;64.50;34.50;;;-3.60;99.90;;;;;;5092681;28;20024;-67
2021/12/11 00:37:17;;;;;;;65.63;35.30;;;-3.60;99.90;;;;;;5109719;28;20016;-67
2021/12/11 00:39:55;;;;;;;71.15;34.55;;;-3.60;99.90;;;;;;5111121;28;20095;-67
2021/12/11 00:42:24;;;;;;;68.85;34.42;;;-3.60;99.90;;;;;;5111122;28;20484;-67
2021/12/11 00:44:52;;;;;;;65.47;36.40;;;-3.60;99.90;;;;;;5109593;28;20024;-67
2021/12/11 00:47:23;;;;;;;71.70;35.67;;;-3.60;99.90;;;;;;5092465;28;20020;-66
2021/12/11 00:49:57;;;;;;;64.25;35.00;;;-3.60;99.90;;;;;;5110584;28;20123;-67
2021/12/11 00:52:31;;;;;;;61.05;33.33;;;-3.60;99.90;;;;;;5109724;28;20440;-68
2021/12/11 00:54:56;;;;;;;66.25;33.70;;;-3.60;99.90;;;;;;5110853;28;20038;-68
2021/12/11 00:57:22;;;;;;;65.07;34.25;;;-3.70;99.90;;;;;;5091955;28;20024;-67
2021/12/11 00:59:59;;;;;;;65.57;35.05;;;-3.70;99.90;;;;;;5109285;28;20020;-67
2021/12/11 01:02:26;;;;;;;56.20;33.40;;;-3.70;99.90;;;;;;5083107;28;20024;-68
2021/12/11 01:04:52;;;;;;;67.57;35.25;;;-3.70;99.90;;;;;;5097096;28;20016;-67
2021/12/11 01:07:21;;;;;;;68.10;37.28;;;-3.70;99.90;;;;;;5095304;28;20016;-67
2021/12/11 01:10:00;;;;;;;70.72;36.30;;;-3.70;99.90;;;;;;5095451;28;20012;-67
2021/12/11 01:12:50;;;;;;;69.75;36.58;;;-3.60;99.90;;;;;;5096932;28;20023;-67
2021/12/11 01:15:25;;;;;;;64.38;35.25;;;-3.70;99.90;;;;;;5095065;28;20063;-66
2021/12/11 01:21:07;;;;;;;70.30;37.63;;;-3.70;99.90;;;;;;5071717;28;20826;-66
2021/12/11 01:26:21;;;;;;;69.35;37.28;;;-3.80;99.90;;;;;;5112232;27;20201;-66
2021/12/11 01:28:48;;;;;;;62.60;36.50;;;-3.80;99.90;;;;;;5093888;28;20034;-66
2021/12/11 01:31:16;;;;;;;72.22;37.78;;;-3.80;99.90;;;;;;5110119;28;20020;-66
2021/12/11 01:33:42;;;;;;;71.35;37.40;;;-3.80;99.90;;;;;;5111863;28;20440;-66
2021/12/11 01:36:09;;;;;;;70.47;35.80;;;-3.80;99.90;;;;;;5110428;28;20027;-66
2021/12/11 01:38:36;;;;;;;64.22;35.30;;;-3.90;99.90;;;;;;5092973;28;20066;-66
2021/12/11 01:41:07;;;;;;;70.85;37.40;;;-3.90;99.90;;;;;;5110042;28;20058;-66
2021/12/11 01:43:36;;;;;;;62.75;35.17;;;-3.90;99.90;;;;;;5110546;28;20036;-67
2021/12/11 01:46:04;;;;;;;65.03;36.00;;;-3.60;99.90;;;;;;5093046;28;20032;-66
2021/12/11 01:48:35;;;;;;;64.28;34.80;;;-4.00;99.90;;;;;;5111378;28;20051;-67
2021/12/11 01:51:06;;;;;;;75.13;37.72;;;-4.00;99.90;;;;;;5111512;28;20043;-68
2021/12/11 01:53:36;;;;;;;62.53;34.10;;;-4.00;99.90;;;;;;5093243;28;20349;-68
2021/12/11 01:56:08;;;;;;;59.15;33.05;;;-4.10;99.90;;;;;;5110005;28;20046;-65
2021/12/11 01:58:41;;;;;;;69.85;35.92;;;-4.10;99.90;;;;;;5109700;28;20023;-67
2021/12/11 02:01:09;;;;;;;;;;;-4.20;99.90;;;;;;5110024;28;20028;-67
2021/12/11 02:03:36;;;;;;;72.07;36.00;;;-4.20;99.90;;;;;;5109580;28;20259;-67
2021/12/11 02:06:03;;;;;;;73.05;35.17;;;-4.10;99.90;;;;;;5111235;28;20485;-68
2021/12/11 02:08:40;;;;;;;65.60;35.33;;;-4.10;99.90;;;;;;5109391;28;20530;-66
2021/12/11 02:11:11;;;;;;;62.90;33.78;;;-4.10;99.90;;;;;;5110006;28;20016;-67
2021/12/11 02:13:46;;;;;;;64.22;34.53;;;-4.10;99.90;;;;;;5110545;28;20031;-67
2021/12/11 02:16:20;;;;;;;60.75;34.55;;;-4.00;99.90;;;;;;5109673;28;20434;-67
2021/12/11 02:18:53;;;;;;;59.88;34.17;;;-4.00;99.90;;;;;;5109600;28;20026;-67
2021/12/11 02:21:26;;;;;;;70.88;37.65;;;-4.00;99.90;;;;;;5110007;28;20419;-67
2021/12/11 02:23:58;;;;;;;70.05;37.70;;;-4.00;99.90;;;;;;5109954;28;20034;-66
2021/12/11 02:26:26;;;;;;;71.07;37.30;;;;;;;;;;5110897;28;20032;-66
2021/12/11 02:28:59;;;;;;;65.93;34.55;;;-3.70;99.90;;;;;;5110558;28;20019;-67
2021/12/11 02:31:35;;;;;;;67.03;34.97;;;-3.70;99.90;;;;;;5109767;28;20024;-67
2021/12/11 02:34:10;;;;;;;61.80;35.75;;;-3.80;99.90;;;;;;5108873;28;20020;-67
2021/12/11 02:36:42;;;;;;;62.70;34.72;;;-3.80;99.90;;;;;;5103335;28;20031;-66
2021/12/11 02:39:19;;;;;;;;;;;-3.80;99.90;;;;;;5096944;28;20194;-67
2021/12/11 02:42:13;;;;;;;61.47;32.60;;;-3.90;99.90;;;;;;5095764;28;19953;-66
2021/12/11 02:44:45;;;;;;;61.75;31.65;;;-3.90;99.90;;;;;;5096405;28;20103;-67
2021/12/11 02:47:23;;;;;;;58.00;30.98;;;-3.90;99.90;;;;;;5095519;28;20073;-67
2021/12/11 02:52:43;;;;;;;57.78;31.90;;;-3.90;99.90;;;;;;5071752;28;20353;-67
2021/12/11 02:55:24;;;;;;;60.72;33.75;;;-3.90;99.90;;;;;;5069572;28;20025;-66
2021/12/11 02:57:55;;;;;;;61.17;32.97;;;-4.00;99.90;;;;;;5053574;28;20075;-66
2021/12/11 03:00:26;;;;;;;57.92;31.77;;;-4.00;99.90;;;;;;5069868;28;20146;-67
2021/12/11 03:03:02;;;;;;;60.25;33.53;;;-4.00;99.90;;;;;;5071291;28;20025;-67
2021/12/11 03:05:40;;;;;;;60.15;33.20;;;-4.00;99.90;;;;;;5053702;28;20126;-66
2021/12/11 03:08:09;;;;;;;57.85;32.50;;;-4.00;99.90;;;;;;5069502;28;20041;-67
2021/12/11 03:10:38;;;;;;;59.15;32.13;;;-4.10;99.90;;;;;;5069624;28;20029;-66
2021/12/11 03:13:04;;;;;;;58.33;34.80;;;-4.10;99.90;;;;;;5069664;28;20027;-66
2021/12/11 03:15:30;;;;;;;60.17;32.72;;;-4.00;99.90;;;;;;5069570;28;20023;-66
2021/12/11 03:17:56;;;;;;;58.53;34.33;;;-4.00;99.90;;;;;;5070965;28;20107;-67
2021/12/11 03:20:23;;;;;;;59.08;31.67;;;-4.00;99.90;;;;;;5052551;28;20060;-67
2021/12/11 03:22:50;;;;;;;58.63;32.15;;;-4.00;99.90;;;;;;5069029;28;20071;-67
2021/12/11 03:25:20;;;;;;;60.38;31.48;;;-4.00;99.90;;;;;;5069636;28;20021;-67
2021/12/11 03:27:47;;;;;;;55.50;31.33;;;-4.00;99.90;;;;;;5052750;28;20025;-67
2021/12/11 03:30:21;;;;;;;60.92;33.40;;;-4.00;99.90;;;;;;5068868;28;20024;-67
2021/12/11 03:32:47;;;;;;;56.53;31.83;;;-4.00;99.90;;;;;;5070615;28;20031;-67
2021/12/11 03:35:13;;;;;;;57.05;31.85;;;-4.10;99.90;;;;;;5070354;28;20029;-66
2021/12/11 03:37:39;;;;;;;53.53;30.20;;;-4.10;99.90;;;;;;5070246;28;20025;-67
2021/12/11 03:40:07;;;;;;;59.55;30.95;;;-4.10;99.90;;;;;;5070518;28;20071;-66
2021/12/11 03:42:38;;;;;;;58.13;31.58;;;-4.00;99.90;;;;;;5069205;28;20021;-66
2021/12/11 03:45:10;;;;;;;56.63;30.60;;;-4.10;99.90;;;;;;5052774;28;20119;-67
2021/12/11 03:47:40;;;;;;;56.80;30.33;;;-4.10;99.90;;;;;;5069642;28;20029;-67
2021/12/11 03:50:12;;;;;;;59.88;30.40;;;-4.10;99.90;;;;;;5068212;28;20024;-73
2021/12/11 03:52:39;;;;;;;38.28;22.35;;;-4.10;99.90;;;;;;5068794;28;20418;-67
2021/12/11 03:55:05;;;;;;;48.63;28.05;;;-4.10;99.90;;;;;;5069182;28;20035;-67
2021/12/11 03:57:31;;;;;;;50.55;29.35;;;-4.10;99.90;;;;;;5068330;28;20029;-67
2021/12/11 03:59:57;;;;;;;54.47;30.60;;;-4.10;99.90;;;;;;5068315;28;20116;-67
2021/12/11 04:02:27;;;;;;;55.75;30.75;;;-4.10;99.90;;;;;;5063747;28;20355;-67
2021/12/11 04:04:58;;;;;;;53.60;30.58;;;-4.10;99.90;;;;;;5039296;28;20021;-67
2021/12/11 04:07:30;;;;;;;50.38;29.00;;;-4.10;99.90;;;;;;5056723;28;20029;-68
2021/12/11 04:09:56;;;;;;;54.10;29.70;;;-4.20;99.90;;;;;;5054890;28;20033;-67
2021/12/11 04:12:25;;;;;;;48.60;27.90;;;-4.20;99.90;;;;;;5055209;28;20033;-67
2021/12/11 04:14:52;;;;;;;52.05;27.30;;;-4.20;99.90;;;;;;5056624;28;20501;-67
2021/12/11 04:17:24;;;;;;;48.10;27.80;;;-4.30;99.90;;;;;;5054754;28;20028;-67
2021/12/11 04:19:54;;;;;;;46.22;27.55;;;-4.30;99.90;;;;;;5056540;28;20013;-67
2021/12/11 04:22:20;;;;;;;51.35;27.83;;;-4.30;99.90;;;;;;5055403;28;20025;-66
2021/12/11 04:24:47;;;;;;;51.10;28.55;;;-4.30;99.90;;;;;;5054986;28;20108;-66
2021/12/11 04:27:16;;;;;;;48.50;27.45;;;-4.30;99.90;;;;;;5056088;28;20082;-67
2021/12/11 04:29:43;;;;;;;48.85;29.27;;;-4.30;99.90;;;;;;5054586;28;20033;-67
2021/12/11 04:32:11;;;;;;;48.90;29.75;;;-4.30;99.90;;;;;;5055660;28;20415;-67
2021/12/11 04:34:37;;;;;;;54.20;29.83;;;-4.30;99.90;;;;;;5054685;28;20099;-67
2021/12/11 04:37:12;;;;;;;48.13;28.42;;;-4.30;99.90;;;;;;5054438;28;20068;-67
2021/12/11 04:39:40;;;;;;;50.67;28.17;;;-4.30;99.90;;;;;;5054398;28;20465;-67
2021/12/11 04:44:54;;;;;;;57.10;30.80;;;-4.30;99.90;;;;;;5055333;28;20486;-66
2021/12/11 04:47:34;;;;;;;54.20;31.25;;;-4.30;99.90;;;;;;5037712;28;20032;-66
2021/12/11 04:50:06;;;;;;;50.20;30.13;;;-4.30;99.90;;;;;;5054629;28;20025;-66
2021/12/11 04:52:34;;;;;;;53.40;30.35;;;-4.30;99.90;;;;;;5054816;28;20041;-66
2021/12/11 04:55:28;;;;;;;56.53;31.25;;;-4.30;99.90;;;;;;5037674;28;20024;-66
2021/12/11 05:01:15;;;;;;;56.88;31.73;;;-4.20;99.90;;;;;;5054062;28;20055;-66
2021/12/11 05:09:32;;;;;;;52.40;28.42;;;-4.10;99.90;;;;;;5112254;27;20416;-67
2021/12/11 05:12:16;;;;;;;51.58;28.67;;;-4.10;99.90;;;;;;5110297;28;20030;-67
2021/12/11 05:14:43;;;;;;;48.88;28.33;;;-4.20;99.90;;;;;;5111897;28;20020;-65
2021/12/11 05:17:10;;;;;;;56.88;30.67;;;-4.20;99.90;;;;;;5110872;28;20027;-67
2021/12/11 05:19:36;;;;;;;59.85;30.52;;;-4.20;99.90;;;;;;5111616;28;20050;-67
2021/12/11 05:22:04;;;;;;;54.80;30.10;;;-4.20;99.90;;;;;;5110028;28;20028;-67
2021/12/11 05:24:30;;;;;;;63.92;31.67;;;-4.20;99.90;;;;;;5109940;28;20115;-67
2021/12/11 05:26:56;;;;;;;51.97;30.20;;;-4.20;99.90;;;;;;5111375;28;20028;-67
2021/12/11 05:29:21;;;;;;;64.90;34.35;;;-4.20;99.90;;;;;;5092947;28;20027;-65
2021/12/11 05:31:47;;;;;;;54.97;30.48;;;-4.20;99.90;;;;;;5092795;28;20520;-67
2021/12/11 05:34:13;;;;;;;54.45;29.70;;;-4.20;99.90;;;;;;5093664;28;20052;-67
2021/12/11 05:36:40;;;;;;;58.17;31.08;;;-4.30;99.90;;;;;;5110757;28;20461;-67
2021/12/11 05:39:14;;;;;;;59.13;30.60;;;-4.30;99.90;;;;;;5111267;28;20020;-67
2021/12/11 05:41:41;;;;;;;50.28;28.40;;;-4.20;99.90;;;;;;5111405;28;20468;-65
2021/12/11 05:44:08;;;;;;;52.15;28.42;;;-4.30;99.90;;;;;;5093179;28;20080;-67
2021/12/11 05:46:35;;;;;;;55.63;29.00;;;-4.30;99.90;;;;;;5111077;28;20102;-67
2021/12/11 05:49:01;;;;;;;51.67;27.83;;;-4.30;99.90;;;;;;5092997;28;20027;-67
2021/12/11 05:51:27;;;;;;;53.80;30.00;;;-4.30;99.90;;;;;;5110969;28;20102;-66
2021/12/11 05:53:58;;;;;;;57.78;29.30;;;-4.30;99.90;;;;;;5092548;28;20016;-67
2021/12/11 05:56:24;;;;;;;40.92;21.63;;;-4.30;99.90;;;;;;5092685;28;20046;-67
2021/12/11 06:01:22;;;;;;;53.90;27.75;;;-4.40;99.90;;;;;;5110800;28;20055;-67
2021/12/11 06:03:49;;;;;;;52.95;29.02;;;-4.30;99.90;;;;;;5093373;28;20028;-67
2021/12/11 06:06:14;;;;;;;54.20;29.75;;;-4.40;99.90;;;;;;5109518;28;20483;-66
2021/12/11 06:08:40;;;;;;;53.53;28.88;;;-4.40;99.90;;;;;;5091891;28;20139;-66
2021/12/11 06:11:08;;;;;;;56.80;27.67;;;-4.40;99.90;;;;;;5109063;28;20020;-67
2021/12/11 06:13:33;;;;;;;54.72;28.80;;;-4.30;99.90;;;;;;5109344;28;20016;-67
2021/12/11 06:16:00;;;;;;;50.67;28.30;;;-4.30;99.90;;;;;;5109727;28;20047;-67
2021/12/11 06:18:26;;;;;;;60.10;29.77;;;-4.20;99.90;;;;;;5107419;28;20107;-66
2021/12/11 06:20:52;;;;;;;54.53;29.23;;;-4.30;99.90;;;;;;5078341;28;20491;-67
2021/12/11 06:23:18;;;;;;;50.38;28.50;;;-4.20;99.90;;;;;;5095577;28;20110;-67
2021/12/11 06:25:46;;;;;;;61.95;32.67;;;-4.20;99.90;;;;;;5078435;28;20473;-67
2021/12/11 06:28:12;;;;;;;66.53;32.13;;;-4.20;99.90;;;;;;5096606;28;20051;-67
2021/12/11 06:30:39;;;;;;;64.57;33.00;;;-4.20;99.90;;;;;;5096905;28;20021;-67
2021/12/11 06:33:05;;;;;;;59.05;31.85;;;-4.10;99.90;;;;;;5096877;28;20016;-67
2021/12/11 06:35:56;;;;;;;64.18;32.17;;;-4.10;99.90;;;;;;5078101;28;20026;-66
2021/12/11 06:38:25;;;;;;;65.50;34.28;;;-4.10;99.90;;;;;;5096118;28;20491;-68
2021/12/11 06:40:53;;;;;;;79.50;37.00;;;-4.00;99.90;;;;;;5096688;28;20074;-67
2021/12/11 06:43:19;;;;;;;71.32;34.15;;;-4.00;99.90;;;;;;5096668;28;20043;-67
2021/12/11 06:45:47;;;;;;;65.60;33.22;;;-3.90;99.90;;;;;;5096067;28;20027;-67
2021/12/11 06:48:14;;;;;;;67.60;32.50;;;-3.90;99.90;;;;;;5095052;28;20085;-67
2021/12/11 06:50:39;;;;;;;64.45;31.20;;;-3.90;99.90;;;;;;5094723;28;20055;-67
2021/12/11 06:53:11;;;;;;;56.60;29.55;;;-3.80;99.90;;;;;;5077806;28;20056;-67
2021/12/11 06:55:37;;;;;;;59.88;30.88;;;-3.80;99.90;;;;;;5094596;28;20457;-67
2021/12/11 06:58:04;;;;;;;51.90;28.65;;;-3.80;99.90;;;;;;5078140;28;20054;-67
2021/12/11 07:00:29;;;;;;;64.63;31.20;;;-3.80;99.90;;;;;;5096282;28;20028;-66
2021/12/11 07:02:55;;;;;;;62.90;31.92;;;-3.90;99.90;;;;;;5095264;28;20031;-67
2021/12/11 07:05:21;;;;;;;66.32;33.20;;;-3.90;99.90;;;;;;5095216;28;20468;-67
2021/12/11 07:07:46;;;;;;;70.65;34.42;;;-3.90;99.90;;;;;;5094326;28;20097;-67
2021/12/11 07:10:14;;;;;;;57.58;28.85;;;-4.00;99.90;;;;;;5094429;28;20604;-66
2021/12/11 07:12:40;;;;;;;60.58;30.80;;;-4.10;99.90;;;;;;5095777;28;20031;-67
2021/12/11 07:15:08;;;;;;;65.18;30.75;;;-4.10;99.90;;;;;;5095512;28;20020;-67
2021/12/11 07:17:34;;;;;;;63.00;32.85;;;-4.00;99.90;;;;;;5094180;28;20392;-67
2021/12/11 07:20:02;;;;;;;66.95;32.95;;;-3.90;99.90;;;;;;5094525;28;20098;-67
2021/12/11 07:22:28;;;;;;;68.70;34.65;;;-3.90;99.90;;;;;;5094720;28;20445;-67
2021/12/11 07:25:01;;;;;;;76.35;35.92;;;-3.80;99.90;;;;;;5094428;28;20040;-67
2021/12/11 07:27:26;;;;;;;;;;;-3.80;99.90;;;;;;5095943;28;20036;-67
2021/12/11 07:29:52;;;;;;;84.63;37.83;;;-3.80;99.90;;;;;;5095386;28;20246;-66
2021/12/11 07:32:18;;;;;;;73.93;36.45;;;-3.80;99.90;;;;;;5094319;28;20024;-67
2021/12/11 07:34:45;;;;;;;65.95;34.55;;;-3.70;99.90;;;;;;5077028;28;20020;-67
2021/12/11 07:37:11;;;;;;;69.63;34.78;;;-3.70;99.90;;;;;;5095593;28;20122;-67
2021/12/11 07:39:36;;;;;;;66.70;32.50;;;-3.70;99.90;;;;;;5094176;28;20441;-66
2021/12/11 07:42:03;;;;;;;68.40;33.53;;;-3.70;99.90;;;;;;5094052;28;20385;-65
2021/12/11 07:44:28;;;;;;;67.10;33.17;;;-3.70;99.90;;;;;;5095192;28;20135;-67
2021/12/11 07:46:56;;;;;;;63.50;33.85;;;-3.60;99.90;;;;;;5093484;28;20568;-66
2021/12/11 07:49:22;;;;;;;79.40;36.92;;;-3.60;99.90;;;;;;5093580;28;20059;-66
2021/12/11 07:51:49;;;;;;;67.05;35.55;;;-3.50;99.90;;;;;;5095238;28;20024;-66
2021/12/11 07:54:15;;;;;;;80.75;39.40;;;-3.40;99.90;;;;;;5095294;28;20047;-66
2021/12/11 07:56:41;;;;;;;122.43;48.28;;;-3.30;99.90;;;;;;5093446;28;20104;-66
2021/12/11 07:59:08;;;;;;;125.97;51.75;;;-2.90;99.90;;;;;;5094031;28;20020;-66
2021/12/11 08:01:41;;;;;;;137.10;54.30;;;-2.60;99.90;;;;;;5095051;28;20019;-66
2021/12/11 08:04:07;;;;;;;;;;;-2.30;99.90;;;;;;5076848;28;20038;-66
2021/12/11 08:06:35;;;;;;;167.13;54.72;;;-2.20;99.90;;;;;;5093233;28;19904;-66
2021/12/11 08:09:03;;;;;;;231.48;61.63;;;-2.10;99.90;;;;;;5076037;28;20051;-66
2021/12/11 08:11:29;;;;;;;215.70;63.17;;;-1.90;99.90;;;;;;5094948;28;20453;-67
2021/12/11 08:13:58;;;;;;;291.65;65.18;;;-1.80;99.90;;;;;;5093472;28;20027;-67
2021/12/11 08:16:32;;;;;;;252.45;63.80;;;-1.70;99.90;;;;;;5093395;28;20020;-66
2021/12/11 08:19:00;;;;;;;295.52;70.50;;;-1.70;99.90;;;;;;5093017;28;20028;-66
2021/12/11 08:21:26;;;;;;;307.35;73.00;;;-1.60;99.90;;;;;;5076127;28;20024;-66
2021/12/11 08:23:54;;;;;;;262.30;69.60;;;-1.50;99.90;;;;;;5094807;28;20487;-65
2021/12/11 08:26:24;;;;;;;306.63;76.47;;;-1.50;99.90;;;;;;5094179;28;20044;-66
2021/12/11 08:28:51;;;;;;;382.23;77.80;;;-1.50;99.90;;;;;;5094080;28;20024;-66
2021/12/11 08:31:18;;;;;;;348.55;80.03;;;-1.40;99.90;;;;;;5094623;28;20035;-66
2021/12/11 08:33:44;;;;;;;284.70;76.75;;;-1.40;99.90;;;;;;5093125;28;20088;-66
2021/12/11 08:36:10;;;;;;;305.48;78.45;;;-1.40;99.90;;;;;;5093056;28;20099;-66
2021/12/11 08:38:36;;;;;;;397.27;109.97;;;-1.30;99.90;;;;;;5092713;28;20216;-66
2021/12/11 08:41:05;;;;;;;439.40;100.90;;;-1.30;99.90;;;;;;5092616;28;20119;-66
2021/12/11 08:43:31;;;;;;;391.70;96.32;;;-1.30;99.90;;;;;;5075584;28;20035;-66
2021/12/11 08:46:11;;;;;;;494.50;130.20;;;-1.30;99.90;;;;;;5092622;28;20031;-66
2021/12/11 08:48:43;;;;;;;359.67;103.78;;;-1.30;99.90;;;;;;5092484;28;20028;-66
2021/12/11 08:51:27;;;;;;;322.88;95.80;;;-1.20;99.90;;;;;;5094356;28;20020;-66
2021/12/11 08:53:53;;;;;;;348.05;107.05;;;-1.20;99.90;;;;;;5092516;28;20026;-66
2021/12/11 08:56:19;;;;;;;299.17;85.18;;;-1.10;99.90;;;;;;5093059;28;20102;-66
2021/12/11 08:58:47;;;;;;;326.15;90.80;;;-1.10;99.90;;;;;;5093105;28;20020;-66
2021/12/11 09:01:33;;;;;;;343.65;84.88;;;-1.00;99.90;;;;;;5092101;28;20040;-66
2021/12/11 09:04:20;;;;;;;361.77;77.50;;;-1.00;99.90;;;;;;5094151;28;20419;-66
2021/12/11 09:06:56;;;;;;;339.10;78.38;;;-1.00;99.90;;;;;;5092852;28;20122;-66
2021/12/11 09:09:28;;;;;;;307.27;76.38;;;-1.00;99.90;;;;;;5094157;28;20450;-66
2021/12/11 09:12:03;;;;;;;263.70;63.65;;;-1.00;99.90;;;;;;5094044;28;20077;-66
2021/12/11 09:14:39;;;;;;;313.35;75.18;;;-0.90;99.90;;;;;;5092315;28;20365;-65
2021/12/11 09:17:19;;;;;;;333.70;76.53;;;-0.80;99.90;;;;;;5075474;28;20376;-66
2021/12/11 09:19:51;;;;;;;364.33;78.22;;;-0.80;99.90;;;;;;5075487;28;20055;-66
2021/12/11 09:22:24;;;;;;;324.52;77.25;;;-0.80;99.90;;;;;;5092322;28;20020;-66
2021/12/11 09:24:54;;;;;;;;;;;-0.70;99.90;;;;;;5094283;28;20020;-66
2021/12/11 09:27:30;;;;;;;392.65;73.45;;;-0.60;99.90;;;;;;5093607;28;19908;-66
2021/12/11 09:30:01;;;;;;;369.67;76.95;;;-0.60;99.90;;;;;;5093991;28;20016;-66
2021/12/11 09:32:52;;;;;;;355.85;72.82;;;-0.60;99.90;;;;;;5093939;28;20103;-66
2021/12/11 09:35:31;;;;;;;414.33;75.15;;;-0.50;99.90;;;;;;5092228;28;20114;-66
2021/12/11 09:38:01;;;;;;;360.70;77.25;;;-0.50;99.90;;;;;;5075212;28;20078;-66
2021/12/11 09:43:36;;;;;;;365.70;88.35;;;-0.40;99.90;;;;;;5112141;27;20438;-67
2021/12/11 09:46:06;;;;;;;472.40;100.63;;;-0.40;99.90;;;;;;5111341;28;20059;-66
2021/12/11 09:48:32;;;;;;;496.92;117.65;;;-0.30;99.90;;;;;;5110415;28;20466;-66
2021/12/11 09:51:04;;;;;;;448.10;80.22;;;-0.30;99.90;;;;;;5111491;28;20066;-67
2021/12/11 09:53:35;;;;;;;431.85;79.05;;;-0.30;99.90;;;;;;5110360;28;20022;-66
2021/12/11 09:56:06;;;;;;;403.50;78.35;;;-0.20;99.90;;;;;;5093340;28;20020;-66
2021/12/11 09:58:35;;;;;;;470.35;115.75;;;-0.10;99.90;;;;;;5111455;28;20024;-66
2021/12/11 10:01:08;;;;;;;416.65;92.40;;;-0.10;99.90;;;;;;5111651;28;20028;-66
2021/12/11 10:03:40;;;;;;;394.73;87.65;;;-0.10;99.90;;;;;;5110104;28;20027;-66
2021/12/11 10:06:15;;;;;;;283.42;59.83;;;0.00;99.90;;;;;;5093008;28;20024;-66
2021/12/11 10:08:56;;;;;;;375.88;74.97;;;0.00;99.90;;;;;;5110912;28;20031;-66
2021/12/11 10:11:30;;;;;;;395.30;79.18;;;0.10;99.90;;;;;;5094271;28;20031;-66
2021/12/11 10:14:02;;;;;;;386.60;79.78;;;0.10;99.90;;;;;;5111144;28;20097;-66
2021/12/11 10:16:32;;;;;;;397.00;77.80;;;0.20;99.90;;;;;;5110387;28;20036;-66
2021/12/11 10:18:58;;;;;;;385.80;74.95;;;0.20;99.90;;;;;;5109955;28;20035;-66
2021/12/11 10:21:33;;;;;;;370.77;75.47;;;0.20;99.90;;;;;;5110037;28;20372;-66
2021/12/11 10:24:03;;;;;;;356.77;72.15;;;0.30;99.90;;;;;;5110655;28;20020;-66
2021/12/11 10:26:29;;;;;;;341.92;72.50;;;0.30;99.90;;;;;;5109363;28;20055;-66
2021/12/11 10:28:59;;;;;;;341.23;71.03;;;0.30;99.90;;;;;;5093269;28;20030;-66
2021/12/11 10:31:29;;;;;;;336.50;72.15;;;0.40;99.90;;;;;;5111097;28;20016;-66
2021/12/11 10:34:01;;;;;;;341.98;72.38;;;0.40;99.90;;;;;;5110776;28;20107;-66
2021/12/11 10:36:31;;;;;;;323.80;71.97;;;0.50;99.90;;;;;;5109551;28;20028;-66
2021/12/11 10:39:00;;;;;;;323.20;68.63;;;0.50;99.90;;;;;;5109367;28;20254;-66
2021/12/11 10:41:28;;;;;;;353.58;71.80;;;0.60;99.90;;;;;;5092261;28;20040;-66
2021/12/11 10:44:00;;;;;;;316.17;69.22;;;0.60;99.90;;;;;;5109109;28;20081;-66
2021/12/11 10:46:31;;;;;;;302.58;71.35;;;0.50;99.90;;;;;;5108970;28;20061;-66
2021/12/11 10:48:58;;;;;;;298.77;64.88;;;0.50;99.90;;;;;;5110527;28;20016;-66
2021/12/11 10:51:36;;;;;;;313.40;68.85;;;0.50;99.90;;;;;;5108854;28;20460;-66
2021/12/11 10:54:02;;;;;;;308.40;67.47;;;0.50;99.90;;;;;;5083214;28;20370;-66
2021/12/11 10:56:28;;;;;;;301.67;68.40;;;0.60;99.90;;;;;;5097027;28;20031;-66
2021/12/11 10:58:59;;;;;;;302.88;66.75;;;0.60;99.90;;;;;;5095109;28;20024;-66
2021/12/11 11:01:33;;;;;;;306.85;68.93;;;0.60;99.90;;;;;;5095738;28;20028;-66
2021/12/11 11:04:07;;;;;;;299.58;69.10;;;0.60;99.90;;;;;;5079057;28;20028;-66
2021/12/11 11:06:33;;;;;;;306.70;83.35;;;0.70;99.90;;;;;;5096289;28;20020;-66
2021/12/11 11:08:59;;;;;;;295.85;85.47;;;0.70;99.90;;;;;;5095048;28;20020;-67
2021/12/11 11:11:28;;;;;;;451.70;134.68;;;0.70;99.90;;;;;;5095304;28;20526;-66
2021/12/11 11:13:54;;;;;;;457.02;139.43;;;0.80;99.90;;;;;;5096669;28;20115;-67
2021/12/11 11:16:22;;;;;;;322.48;87.45;;;0.80;99.90;;;;;;5095572;28;20047;-67
2021/12/11 11:18:48;;;;;;;261.83;61.75;;;0.80;99.90;;;;;;5095476;28;20021;-67
2021/12/11 11:21:19;;;;;;;278.55;69.15;;;0.90;99.90;;;;;;5096100;28;20350;-67
2021/12/11 11:23:47;;;;;;;360.15;115.93;;;1.00;99.90;;;;;;5095362;28;20480;-66
2021/12/11 11:26:18;;;;;;;232.05;57.30;;;1.10;99.90;;;;;;5096476;28;20525;-67
2021/12/11 11:28:45;;;;;;;238.25;64.95;;;1.20;99.90;;;;;;5095566;28;20128;-65
2021/12/11 11:31:14;;;;;;;241.88;71.15;;;1.40;99.90;;;;;;5096417;28;20069;-67
2021/12/11 11:33:42;;;;;;;200.93;63.92;;;1.40;99.90;;;;;;5096014;28;20454;-71
2021/12/11 11:36:11;;;;;;;228.35;84.25;;;1.50;99.90;;;;;;5096338;28;20024;-71
2021/12/11 11:38:43;;;;;;;201.35;61.55;;;1.50;99.90;;;;;;5094768;28;20093;-71
2021/12/11 11:41:15;;;;;;;171.70;57.87;;;1.60;99.90;;;;;;5094059;28;20157;-73
2021/12/11 11:43:41;;;;;;;173.85;50.53;;;1.60;99.90;;;;;;5094329;28;20473;-72
2021/12/11 11:46:07;;;;;;;158.75;46.80;;;1.60;99.90;;;;;;5094671;28;20043;-71
2021/12/11 11:48:36;;;;;;;153.43;46.20;;;1.70;99.90;;;;;;5095046;28;20051;-71
2021/12/11 11:51:06;;;;;;;136.30;44.13;;;1.80;99.90;;;;;;5095965;28;20461;-71
2021/12/11 11:53:32;;;;;;;131.65;43.13;;;1.90;99.90;;;;;;5094539;28;20054;-72
2021/12/11 11:56:08;;;;;;;140.32;44.72;;;1.90;99.90;;;;;;5077200;28;20476;-72
2021/12/11 11:58:34;;;;;;;130.13;42.53;;;2.00;99.90;;;;;;5094363;28;20028;-72
2021/12/11 12:01:10;;;;;;;126.78;42.00;;;2.00;99.90;;;;;;5094057;28;20048;-72
2021/12/11 12:03:37;;;;;;;127.57;43.65;;;2.10;99.90;;;;;;5094366;28;20024;-72
2021/12/11 12:06:10;;;;;;;135.35;46.08;;;2.20;99.90;;;;;;5076029;28;20024;-72
2021/12/11 12:08:37;;;;;;;129.20;42.88;;;2.20;99.90;;;;;;5095725;28;20020;-73
2021/12/11 12:11:04;;;;;;;131.20;44.20;;;2.20;99.90;;;;;;5077126;28;20066;-73
2021/12/11 12:13:29;;;;;;;126.25;43.17;;;2.30;99.90;;;;;;5095277;28;20024;-73
2021/12/11 12:16:00;;;;;;;119.63;42.33;;;2.40;99.90;;;;;;5076792;28;20035;-73
2021/12/11 12:18:27;;;;;;;114.35;40.60;;;2.40;99.90;;;;;;5095466;28;20232;-73
2021/12/11 12:20:55;;;;;;;118.07;41.00;;;2.40;99.90;;;;;;5093574;28;20028;-73
2021/12/11 12:23:22;;;;;;;123.90;42.80;;;2.50;99.90;;;;;;5093788;28;20024;-73
2021/12/11 12:25:51;;;;;;;123.43;43.33;;;2.60;99.90;;;;;;5093526;28;20016;-73
2021/12/11 12:28:19;;;;;;;112.28;40.60;;;2.70;99.90;;;;;;5094121;28;20019;-74
2021/12/11 12:30:52;;;;;;;112.28;41.90;;;2.80;99.90;;;;;;5093644;28;20477;-73
2021/12/11 12:33:17;;;;;;;110.78;40.30;;;2.90;99.90;;;;;;5077196;28;20127;-72
2021/12/11 12:35:45;;;;;;;109.80;39.78;;;2.90;99.90;;;;;;5076383;28;20118;-72
2021/12/11 12:38:16;;;;;;;105.05;38.70;;;3.10;99.90;;;;;;5093659;28;20034;-72
2021/12/11 12:40:54;;;;;;;107.95;40.03;;;3.10;99.90;;;;;;5076924;28;20477;-73
2021/12/11 12:44:16;;;;;;;106.43;38.15;;;3.10;99.90;;;;;;5092995;28;20497;-72
2021/12/11 12:46:09;;;;;;;108.90;40.72;;;3.20;99.90;;;;;;5094221;28;20031;-73
2021/12/11 12:48:36;;;;;;;103.25;39.78;;;3.20;99.90;;;;;;5094589;28;20020;-73
2021/12/11 12:51:06;;;;;;;104.43;38.85;;;3.20;99.90;;;;;;5092974;28;20428;-73
2021/12/11 12:53:34;;;;;;;101.05;38.28;;;3.30;99.90;;;;;;5077183;28;20408;-73
2021/12/11 12:58:48;;;;;;;107.65;39.63;;;3.20;99.90;;;;;;5112287;27;20404;-74
2021/12/11 13:01:19;;;;;;;109.25;38.88;;;3.20;99.90;;;;;;5111810;28;20460;-74
2021/12/11 13:03:46;;;;;;;109.72;39.17;;;3.10;99.90;;;;;;5110026;28;20054;-74
2021/12/11 13:06:18;;;;;;;109.30;39.20;;;3.10;99.90;;;;;;5110649;28;20020;-74
2021/12/11 13:08:51;;;;;;;104.13;38.20;;;3.10;99.90;;;;;;5111526;28;20020;-74
2021/12/11 13:11:19;;;;;;;;;;;3.10;99.90;;;;;;5112232;28;20024;-74